Terminal Aerodrome Forecast
Issued by NWS

Home | Current Version | Previous Version | Text Only | Print | Product List | Glossary On
Versions: 1 2 3 4 5 6 7 8 9 10 11 12 13 14 15 16 17 18 19 20
000
FTUS43 KICT 260747 AAA
TAFCNU
TAF AMD
KCNU 260747Z 2608/2706 VRB05KT P6SM VCTS SCT020 OVC040CB
      TEMPO 2608/2611 3SM +TSRA BKN017CB
     FM261100 VRB04KT P6SM SCT020 BKN250
     FM261600 13007KT P6SM SCT030=

USA.gov is the U.S. government's official web portal to all federal, state and local government web resources and services.